createdAt,value
2018-08-23T00:00:37.285Z,47.87
2018-08-23T00:03:40.647Z,48.32
2018-08-23T00:06:49.647Z,48.68
2018-08-23T00:09:54.043Z,48.59
2018-08-23T00:12:58.307Z,49.08
2018-08-23T00:16:01.544Z,48.15
2018-08-23T00:19:05.183Z,48.37
2018-08-23T00:22:08.531Z,49.21
2018-08-23T00:25:11.816Z,48.55
2018-08-23T00:28:15.104Z,50.34
2018-08-23T00:31:18.450Z,49.89
2018-08-23T00:34:23.796Z,51.05
2018-08-23T00:37:27.096Z,49.71
2018-08-23T00:40:31.025Z,51.94
2018-08-23T00:43:34.260Z,51.20
2018-08-23T00:46:37.548Z,50.70
2018-08-23T00:49:40.872Z,50.75
2018-08-23T00:52:46.327Z,50.76
2018-08-23T00:55:58.550Z,50.90
2018-08-23T00:59:02.762Z,51.11
2018-08-23T01:02:08.210Z,50.76
2018-08-23T01:05:12.544Z,51.42
2018-08-23T01:08:19.968Z,51.13
2018-08-23T01:11:24.632Z,50.96
2018-08-23T01:14:27.859Z,51.25
2018-08-23T01:17:31.130Z,51.04
2018-08-23T01:20:34.315Z,51.39
2018-08-23T01:23:37.965Z,51.54
2018-08-23T01:26:41.233Z,52.12
2018-08-23T01:29:44.410Z,51.43
2018-08-23T01:32:47.716Z,51.65
2018-08-23T01:35:52.518Z,51.73
2018-08-23T01:38:55.743Z,52.08
2018-08-23T01:41:59.100Z,52.14
2018-08-23T01:45:04.637Z,54.00
2018-08-23T01:48:09.048Z,52.40
2018-08-23T01:51:12.339Z,54.13
2018-08-23T01:54:15.760Z,52.84
2018-08-23T01:57:23.160Z,53.22
2018-08-23T02:00:28.693Z,55.34
2018-08-23T02:03:31.938Z,55.80
2018-08-23T02:06:36.196Z,56.07
2018-08-23T02:09:39.492Z,55.75
2018-08-23T02:12:48.059Z,54.51
2018-08-23T02:15:52.003Z,55.48
2018-08-23T02:18:55.301Z,55.95
2018-08-23T02:21:58.610Z,55.19
2018-08-23T02:25:01.793Z,56.05
2018-08-23T02:28:12.080Z,54.97
2018-08-23T02:31:15.616Z,55.75
2018-08-23T02:34:19.046Z,55.82
2018-08-23T02:37:23.482Z,54.68
2018-08-23T02:40:28.427Z,54.17
2018-08-23T02:43:31.647Z,55.54
2018-08-23T02:46:35.473Z,55.68
2018-08-23T02:49:38.770Z,55.12
2018-08-23T02:52:42.024Z,55.40
2018-08-23T02:55:49.459Z,56.60
2018-08-23T02:59:00.642Z,56.44
2018-08-23T03:02:10.914Z,57.05
2018-08-23T03:05:15.275Z,56.95
2018-08-23T03:08:28.689Z,57.45
2018-08-23T03:11:35.329Z,57.54
2018-08-23T03:14:39.133Z,57.46
2018-08-23T03:17:47.560Z,57.60
2018-08-23T03:21:01.832Z,57.59
2018-08-23T03:24:06.198Z,57.83
2018-08-23T03:27:09.479Z,56.55
2018-08-23T03:30:13.819Z,57.88
2018-08-23T03:33:17.317Z,58.32
2018-08-23T03:36:20.749Z,58.25
2018-08-23T03:39:24.245Z,58.15
2018-08-23T03:42:27.847Z,57.56
2018-08-23T03:45:31.102Z,57.83
2018-08-23T03:48:34.375Z,57.91
2018-08-23T03:51:37.852Z,57.90
2018-08-23T03:54:41.116Z,58.45
2018-08-23T03:57:49.798Z,58.45
2018-08-23T04:01:01.600Z,58.81
2018-08-23T04:04:04.859Z,58.91
2018-08-23T04:07:08.145Z,59.21
2018-08-23T04:10:11.475Z,59.65
2018-08-23T04:13:14.781Z,59.76
2018-08-23T04:16:25.060Z,60.14
2018-08-23T04:19:29.235Z,58.89
2018-08-23T04:22:32.500Z,58.14
2018-08-23T04:25:35.654Z,58.77
2018-08-23T04:28:40.103Z,58.00
2018-08-23T04:31:43.483Z,58.75
2018-08-23T04:34:46.723Z,58.36
2018-08-23T04:37:50.559Z,58.67
2018-08-23T04:40:59.799Z,60.10
2018-08-23T04:44:12.447Z,60.51
2018-08-23T04:47:15.903Z,60.24
2018-08-23T04:50:19.542Z,59.62
2018-08-23T04:53:23.804Z,59.88
2018-08-23T04:56:27.161Z,60.29
2018-08-23T04:59:30.502Z,59.45
2018-08-23T05:02:33.974Z,59.74
2018-08-23T05:05:37.443Z,59.86
2018-08-23T05:08:41.035Z,60.24
2018-08-23T05:11:44.602Z,60.21
2018-08-23T05:14:47.977Z,60.71
2018-08-23T05:17:52.298Z,61.05
2018-08-23T05:20:55.621Z,61.32
2018-08-23T05:24:03.303Z,61.18
2018-08-23T05:27:06.489Z,60.97
2018-08-23T05:30:09.759Z,61.04
2018-08-23T05:33:13.982Z,60.82
2018-08-23T05:36:17.795Z,61.08
2018-08-23T05:39:22.926Z,61.72
2018-08-23T05:42:38.194Z,62.31
2018-08-23T05:45:48.181Z,61.80
2018-08-23T05:48:51.966Z,61.78
2018-08-23T05:51:56.968Z,61.24
2018-08-23T05:55:00.778Z,61.74
2018-08-23T05:58:21.944Z,61.52
2018-08-23T06:01:25.382Z,62.28
2018-08-23T06:04:39.334Z,61.07
2018-08-23T06:07:42.682Z,60.42
2018-08-23T06:10:49.554Z,61.33
2018-08-23T06:13:53.791Z,60.82
2018-08-23T06:16:58.609Z,59.57
2018-08-23T06:20:01.911Z,58.69
2018-08-23T06:23:05.324Z,58.44
2018-08-23T06:26:08.676Z,58.91
2018-08-23T06:29:16.149Z,58.37
2018-08-23T06:32:19.499Z,58.38
2018-08-23T06:35:24.503Z,58.56
2018-08-23T06:38:27.793Z,59.10
2018-08-23T06:41:31.144Z,58.34
2018-08-23T06:44:41.320Z,58.35
2018-08-23T06:47:49.768Z,57.84
2018-08-23T06:50:56.092Z,58.05
2018-08-23T06:54:01.445Z,57.58
2018-08-23T06:57:04.740Z,56.80
2018-08-23T07:00:08.205Z,56.65
2018-08-23T07:03:11.540Z,55.56
2018-08-23T07:06:14.884Z,55.83
2018-08-23T07:09:18.826Z,56.13
2018-08-23T07:12:22.915Z,55.60
2018-08-23T07:15:26.155Z,55.19
2018-08-23T07:18:31.109Z,54.69
2018-08-23T07:21:34.417Z,54.36
2018-08-23T07:24:41.589Z,54.50
2018-08-23T07:27:45.457Z,54.53
2018-08-23T07:30:49.862Z,54.12
2018-08-23T07:33:54.896Z,53.39
2018-08-23T07:37:00.100Z,52.99
2018-08-23T07:40:10.945Z,52.19
2018-08-23T07:43:14.276Z,52.35
2018-08-23T07:46:18.739Z,52.13
2018-08-23T07:49:23.530Z,51.60
2018-08-23T07:52:28.211Z,51.33
2018-08-23T07:55:31.359Z,50.68
2018-08-23T07:58:34.608Z,51.79
2018-08-23T08:01:38.858Z,51.69
2018-08-23T08:04:42.063Z,51.49
2018-08-23T08:07:45.514Z,50.65
2018-08-23T08:10:48.941Z,51.01
2018-08-23T08:14:55.727Z,51.08
2018-08-23T08:18:09.127Z,51.33
2018-08-23T08:21:16.844Z,51.22
2018-08-23T08:24:20.139Z,50.62
2018-08-23T08:27:24.884Z,50.48
2018-08-23T08:30:39.891Z,50.17
2018-08-23T08:33:43.166Z,50.35
2018-08-23T08:36:47.757Z,49.59
2018-08-23T08:39:52.132Z,49.56
2018-08-23T08:42:55.299Z,48.44
2018-08-23T08:45:59.762Z,47.29
2018-08-23T08:49:03.302Z,46.95
2018-08-23T08:52:06.615Z,45.31
2018-08-23T08:55:11.935Z,45.12
2018-08-23T08:58:15.325Z,45.37
2018-08-23T09:01:18.912Z,45.02
2018-08-23T09:04:28.054Z,44.55
2018-08-23T09:07:32.865Z,43.78
2018-08-23T09:10:36.136Z,43.60
2018-08-23T09:13:46.428Z,43.95
2018-08-23T09:16:49.760Z,43.54
2018-08-23T09:20:01.670Z,43.61
2018-08-23T09:23:04.913Z,43.63
2018-08-23T09:26:08.278Z,42.59
2018-08-23T09:29:23.252Z,42.70
2018-08-23T09:32:27.543Z,42.08
2018-08-23T09:35:31.943Z,41.34
2018-08-23T09:38:35.188Z,40.59
2018-08-23T09:41:38.544Z,41.07
2018-08-23T09:44:58.063Z,37.97
2018-08-23T09:48:01.356Z,37.79
2018-08-23T09:51:10.836Z,37.99
2018-08-23T09:54:18.321Z,38.40
2018-08-23T09:57:22.771Z,38.36
2018-08-23T10:00:31.771Z,37.57
2018-08-23T10:03:40.455Z,37.96
2018-08-23T10:06:49.349Z,37.60
2018-08-23T10:09:57.909Z,37.79
2018-08-23T10:13:06.571Z,37.85
2018-08-23T10:16:15.264Z,37.17
2018-08-23T10:19:24.900Z,38.72
2018-08-23T10:22:38.188Z,38.37
2018-08-23T10:25:44.771Z,38.71
2018-08-23T10:28:50.048Z,38.73
2018-08-23T10:31:54.255Z,38.10
2018-08-23T10:34:57.529Z,38.68
2018-08-23T10:38:00.882Z,38.60
2018-08-23T10:41:04.619Z,38.66
2018-08-23T10:44:07.922Z,38.31
2018-08-23T10:47:11.215Z,37.94
2018-08-23T10:50:14.612Z,37.84
2018-08-23T10:53:18.454Z,37.44
2018-08-23T10:56:25.418Z,37.27
2018-08-23T10:59:28.602Z,37.30
2018-08-23T11:02:31.911Z,37.72
2018-08-23T11:05:35.757Z,37.46
2018-08-23T11:08:39.637Z,37.80
2018-08-23T11:11:42.972Z,38.03
2018-08-23T11:14:46.323Z,37.87
2018-08-23T11:17:54.996Z,37.22
2018-08-23T11:20:58.356Z,37.10
2018-08-23T11:24:02.072Z,36.70
2018-08-23T11:27:08.334Z,35.82
2018-08-23T11:30:11.622Z,36.50
2018-08-23T11:33:14.894Z,36.60
2018-08-23T11:36:18.157Z,35.33
2018-08-23T11:39:23.004Z,35.09
2018-08-23T11:42:26.211Z,35.17
2018-08-23T11:45:29.563Z,35.52
2018-08-23T11:48:32.819Z,35.95
2018-08-23T11:51:36.403Z,34.87
2018-08-23T11:54:40.684Z,35.07
2018-08-23T11:57:43.953Z,34.30
2018-08-23T12:00:47.227Z,33.41
2018-08-23T12:03:50.462Z,32.35
2018-08-23T12:06:57.454Z,32.65
2018-08-23T12:10:00.867Z,32.30
2018-08-23T12:13:04.102Z,33.01
2018-08-23T12:16:09.389Z,32.55
2018-08-23T12:19:12.707Z,32.42
2018-08-23T12:22:15.978Z,32.54
2018-08-23T12:25:19.307Z,33.06
2018-08-23T12:28:29.943Z,33.01
2018-08-23T12:31:33.298Z,33.09
2018-08-23T12:34:38.328Z,32.00
2018-08-23T12:37:47.232Z,31.94
2018-08-23T12:40:55.706Z,31.17
2018-08-23T12:44:00.616Z,30.69
2018-08-23T12:47:05.443Z,31.04
2018-08-23T12:50:08.697Z,30.75
2018-08-23T12:53:12.328Z,30.29
2018-08-23T12:56:15.512Z,29.91
2018-08-23T12:59:18.756Z,30.28
2018-08-23T13:02:23.391Z,29.87
2018-08-23T13:05:26.583Z,29.99
2018-08-23T13:08:29.896Z,29.72
2018-08-23T13:11:33.220Z,29.84
2018-08-23T13:14:36.495Z,29.83
2018-08-23T13:17:39.789Z,30.26
2018-08-23T13:20:43.087Z,30.23
2018-08-23T13:23:46.800Z,30.21
2018-08-23T13:26:50.139Z,29.88
2018-08-23T13:29:54.661Z,29.67
2018-08-23T13:32:58.527Z,28.96
2018-08-23T13:36:01.954Z,29.44
2018-08-23T13:39:08.208Z,29.48
2018-08-23T13:42:11.475Z,29.34
2018-08-23T13:45:14.652Z,29.45
2018-08-23T13:48:18.032Z,30.15
2018-08-23T13:51:21.271Z,30.32
2018-08-23T13:54:25.289Z,29.75
2018-08-23T13:57:28.681Z,29.29
2018-08-23T14:00:37.924Z,28.99
2018-08-23T14:03:41.444Z,28.49
2018-08-23T14:06:44.804Z,28.35
2018-08-23T14:09:48.032Z,28.14
2018-08-23T14:12:53.486Z,27.97
2018-08-23T14:16:02.232Z,28.00
2018-08-23T14:19:05.492Z,27.94
2018-08-23T14:22:08.952Z,28.71
2018-08-23T14:25:12.398Z,28.89
2018-08-23T14:28:15.584Z,28.34
2018-08-23T14:31:18.991Z,29.24
2018-08-23T14:34:23.068Z,29.00
2018-08-23T14:37:26.721Z,28.81
2018-08-23T14:40:30.066Z,28.82
2018-08-23T14:43:33.354Z,28.88
2018-08-23T14:46:42.127Z,29.32
2018-08-23T14:49:45.390Z,29.51
2018-08-23T14:52:50.129Z,29.01
2018-08-23T14:55:59.320Z,28.40
2018-08-23T14:59:02.632Z,27.93
2018-08-23T15:02:06.189Z,27.47
2018-08-23T15:05:09.504Z,28.13
2018-08-23T15:08:12.933Z,27.95
2018-08-23T15:11:16.072Z,26.94
2018-08-23T15:14:19.545Z,26.41
2018-08-23T15:17:24.733Z,26.66
2018-08-23T15:20:28.032Z,27.15
2018-08-23T15:23:31.396Z,26.55
2018-08-23T15:26:34.800Z,26.70
2018-08-23T15:29:37.954Z,26.83
2018-08-23T15:32:41.222Z,26.06
2018-08-23T15:35:44.559Z,26.77
2018-08-23T15:38:47.788Z,26.50
2018-08-23T15:41:51.210Z,25.78
2018-08-23T15:44:55.478Z,26.69
2018-08-23T15:47:58.819Z,26.40
2018-08-23T15:51:01.912Z,26.20
2018-08-23T15:54:05.697Z,26.39
2018-08-23T15:57:08.947Z,25.87
2018-08-23T16:00:12.235Z,26.37
2018-08-23T16:03:15.995Z,25.81
2018-08-23T16:06:19.679Z,26.37
2018-08-23T16:09:24.488Z,26.43
2018-08-23T16:12:27.779Z,25.85
2018-08-23T16:15:31.500Z,26.42
2018-08-23T16:18:40.303Z,26.54
2018-08-23T16:21:43.699Z,25.96
2018-08-23T16:24:47.126Z,26.34
2018-08-23T16:27:51.109Z,26.39
2018-08-23T16:30:55.665Z,26.74
2018-08-23T16:33:59.304Z,26.92
2018-08-23T16:37:02.720Z,26.42
2018-08-23T16:40:05.960Z,27.18
2018-08-23T16:43:09.160Z,27.24
2018-08-23T16:46:12.508Z,27.91
2018-08-23T16:49:15.733Z,28.30
2018-08-23T16:52:19.043Z,28.87
2018-08-23T16:55:23.600Z,32.16
2018-08-23T16:58:27.931Z,32.57
2018-08-23T17:01:31.238Z,32.54
2018-08-23T17:04:40.025Z,33.09
2018-08-23T17:07:45.557Z,32.76
2018-08-23T17:10:48.958Z,32.87
2018-08-23T17:13:53.326Z,33.18
2018-08-23T17:17:02.431Z,33.78
2018-08-23T17:20:05.767Z,34.64
2018-08-23T17:23:09.058Z,34.79
2018-08-23T17:26:12.347Z,35.03
2018-08-23T17:29:15.746Z,35.27
2018-08-23T17:32:20.035Z,35.57
2018-08-23T17:35:24.623Z,36.04
2018-08-23T17:38:29.197Z,36.18
2018-08-23T17:41:32.367Z,36.97
2018-08-23T17:44:35.715Z,37.02
2018-08-23T17:47:38.985Z,37.21
2018-08-23T17:50:42.319Z,36.97
2018-08-23T17:53:46.646Z,37.37
2018-08-23T17:56:49.926Z,37.57
2018-08-23T17:59:54.325Z,37.93
2018-08-23T18:02:58.066Z,38.05
2018-08-23T18:06:01.364Z,38.41
2018-08-23T18:09:07.655Z,38.17
2018-08-23T18:12:10.807Z,38.69
2018-08-23T18:15:14.108Z,39.85
2018-08-23T18:18:17.415Z,41.56
2018-08-23T18:21:20.700Z,42.28
2018-08-23T18:24:24.708Z,43.28
2018-08-23T18:27:28.011Z,42.92
2018-08-23T18:30:31.518Z,41.95
2018-08-23T18:33:34.908Z,41.74
2018-08-23T18:36:38.085Z,41.91
2018-08-23T18:39:41.292Z,42.38
2018-08-23T18:42:44.409Z,44.05
2018-08-23T18:45:47.712Z,44.34
2018-08-23T18:48:51.187Z,44.64
2018-08-23T18:51:54.377Z,44.92
2018-08-23T18:54:58.424Z,45.13
2018-08-23T18:58:02.656Z,45.38
2018-08-23T19:01:06.226Z,46.10
2018-08-23T19:04:09.556Z,46.14
2018-08-23T19:07:18.219Z,45.96
2018-08-23T19:10:23.525Z,46.24
2018-08-23T19:13:26.729Z,46.13
2018-08-23T19:16:35.447Z,45.98
2018-08-23T19:19:38.729Z,46.66
2018-08-23T19:22:43.259Z,47.63
2018-08-23T19:25:46.541Z,47.89
2018-08-23T19:28:50.041Z,48.25
2018-08-23T19:31:53.401Z,48.79
2018-08-23T19:34:56.712Z,48.87
2018-08-23T19:38:00.000Z,48.97
2018-08-23T19:41:03.226Z,49.04
2018-08-23T19:44:06.478Z,49.26
2018-08-23T19:47:16.059Z,49.71
2018-08-23T19:50:19.371Z,49.91
2018-08-23T19:53:22.683Z,50.11
2018-08-23T19:56:26.111Z,50.62
2018-08-23T19:59:29.492Z,51.40
2018-08-23T20:02:32.868Z,51.87
2018-08-23T20:05:36.287Z,51.78
2018-08-23T20:08:39.516Z,51.78
2018-08-23T20:11:42.864Z,51.67
2018-08-23T20:14:46.186Z,51.77
2018-08-23T20:17:50.163Z,52.10
2018-08-23T20:20:53.565Z,52.40
2018-08-23T20:23:56.785Z,52.33
2018-08-23T20:27:00.040Z,51.74
2018-08-23T20:30:03.337Z,51.99
2018-08-23T20:33:06.859Z,51.44
2018-08-23T20:36:10.192Z,50.50
2018-08-23T20:39:14.698Z,50.45
2018-08-23T20:42:17.893Z,51.43
2018-08-23T20:45:22.247Z,52.41
2018-08-23T20:48:25.671Z,52.87
2018-08-23T20:51:28.905Z,54.01
2018-08-23T20:54:32.119Z,55.73
2018-08-23T20:57:35.364Z,58.68
2018-08-23T21:00:38.571Z,62.48
2018-08-23T21:03:41.949Z,67.18
2018-08-23T21:06:45.202Z,69.37
2018-08-23T21:09:48.641Z,71.86
2018-08-23T21:12:53.120Z,72.16
2018-08-23T21:15:56.403Z,71.68
2018-08-23T21:18:59.885Z,70.13
2018-08-23T21:22:03.218Z,72.80
2018-08-23T21:25:06.496Z,71.98
2018-08-23T21:28:09.797Z,72.26
2018-08-23T21:31:13.158Z,73.75
2018-08-23T21:34:16.575Z,71.60
2018-08-23T21:37:20.432Z,73.11
2018-08-23T21:40:23.934Z,75.00
2018-08-23T21:43:27.287Z,73.03
2018-08-23T21:46:30.691Z,75.32
2018-08-23T21:49:33.962Z,75.03
2018-08-23T21:52:37.400Z,74.50
2018-08-23T21:55:41.109Z,74.24
2018-08-23T21:58:44.742Z,73.22
2018-08-23T22:01:48.112Z,74.65
2018-08-23T22:04:54.731Z,73.76
2018-08-23T22:07:57.985Z,74.02
2018-08-23T22:11:01.510Z,76.13
2018-08-23T22:14:04.923Z,76.94
2018-08-23T22:17:08.159Z,76.97
2018-08-23T22:20:11.544Z,76.42
2018-08-23T22:23:15.787Z,76.77
2018-08-23T22:26:19.071Z,76.69
2018-08-23T22:29:22.933Z,75.41
2018-08-23T22:32:27.203Z,73.86
2018-08-23T22:35:30.536Z,74.17
2018-08-23T22:38:34.031Z,72.26
2018-08-23T22:41:37.480Z,71.56
2018-08-23T22:44:40.880Z,72.03
2018-08-23T22:47:44.104Z,73.03
2018-08-23T22:50:47.560Z,73.03
2018-08-23T22:53:50.829Z,71.34
2018-08-23T22:56:54.204Z,73.06
2018-08-23T22:59:57.625Z,72.64
2018-08-23T23:03:00.971Z,72.82
2018-08-23T23:06:04.196Z,72.47
2018-08-23T23:09:10.224Z,73.11
2018-08-23T23:12:13.523Z,72.90
2018-08-23T23:15:22.120Z,73.45
2018-08-23T23:18:25.436Z,73.86
2018-08-23T23:21:28.875Z,74.53
2018-08-23T23:25:06.859Z,74.56
2018-08-23T23:28:10.358Z,74.55
2018-08-23T23:31:13.636Z,74.71
2018-08-23T23:34:17.148Z,74.83
2018-08-23T23:37:21.666Z,76.07
2018-08-23T23:40:25.937Z,77.40
2018-08-23T23:43:29.162Z,78.44
2018-08-23T23:46:32.492Z,78.62
2018-08-23T23:49:35.830Z,77.99
2018-08-23T23:52:39.035Z,76.93
2018-08-23T23:55:42.223Z,76.26
2018-08-23T23:58:45.564Z,75.72
